Flight Track Log - Related Links

Times and Time Zones

All times are in EDT time to prevent confusion due to time zone crossing. See the ASQ6151 flight status page for this flight to view local times or setup timezone preferences in your user account.

Time Position Orientation Groundspeed Altitude Reporting Facility
EDT Latitude Longitude Course Direction KTS MPH feet Rate Location/Type
Sat 06:15:57 PM 36.0969 -80.0275 302° West 235 270 3,900  Level Atlanta Center
Sat 06:16:57 PM 36.1497 -80.1097 308° West 278 320 6,900 3,050 Climbing Atlanta Center
Sat 06:17:57 PM 36.1936 -80.1769 309° West 271 312 10,000 2,250 Climbing Atlanta Center
Sat 06:18:00 PM 36.3085 -80.3170 302° West  Level FlightAware Approximate
Sat 06:18:57 PM 36.2397 -80.2519 307° West 289 333 11,400  Level Atlanta Center
Sat 06:19:00 PM 36.3636 -80.4114 307° West  Level FlightAware Approximate
Sat 06:19:57 PM 36.2947 -80.3422 307° West 311 358 13,300  Level Atlanta Center
Sat 06:20:00 PM 36.4193 -80.5054 302° West  Level FlightAware Approximate
Sat 06:20:57 PM 36.3614 -80.4114 320° Northwest 329 379 15,200  Level Atlanta Center
Sat 06:21:00 PM 36.4690 -80.6046 302° West  Level FlightAware Approximate
Sat 06:21:57 PM 36.4464 -80.4694 331° Northwest 336 387 17,100  Level Atlanta Center
Sat 06:22:57 PM 36.5336 -80.5275 332° Northwest 342 394 19,000 1,900 Climbing Atlanta Center
Sat 06:23:57 PM 36.6186 -80.5806 333° Northwest 348 400 20,900 1,850 Climbing Atlanta Center
Sat 06:24:57 PM 36.7036 -80.6392 331° Northwest 348 400 22,700 1,300 Climbing Atlanta Center
Sat 06:25:57 PM 36.7992 -80.7075 330° Northwest 353 406 23,500 1,100 Climbing Atlanta Center
Sat 06:26:57 PM 36.8928 -80.7686 332° Northwest 367 422 24,900 1,400 Climbing Atlanta Center
Sat 06:27:57 PM 36.9733 -80.8250 331° Northwest 372 428 26,300 1,400 Climbing Atlanta Center
Sat 06:28:57 PM 37.0625 -80.8864 331° Northwest 372 428 27,700 1,529 Climbing Atlanta Center
Sat 06:29:39 PM 37.1386 -80.9322 334° Northwest 370 426 28,900 1,442 Climbing Indianapolis Center
Sat 06:30:41 PM 37.2256 -80.9919 331° Northwest 367 422 30,200 1,171 Climbing Indianapolis Center
Sat 06:31:42 PM 37.3147 -81.0528 332° Northwest 372 428 31,300 885 Climbing Indianapolis Center
Sat 06:32:43 PM 37.4108 -81.1061 336° Northwest 386 444 32,000 344 Climbing Indianapolis Center
Sat 06:33:44 PM 37.5453 -81.1403 349° North 418 481 32,000 492 Level Indianapolis Center
Sat 06:34:45 PM 37.6628 -81.1700 349° North 437 503 33,000 1,073 Climbing Indianapolis Center
Sat 06:35:47 PM 37.7769 -81.1992 349° North 433 498 34,200 1,268 Climbing Indianapolis Center
Sat 06:36:48 PM 37.9056 -81.2325 348° North 426 490 35,600 885 Climbing Indianapolis Center
Sat 06:37:49 PM 38.0206 -81.2622 348° North 422 486 36,000 197 Climbing Indianapolis Center
Sat 06:38:50 PM 38.1411 -81.2925 349° North 436 502 36,000  Level Indianapolis Center
Sat 06:39:51 PM 38.2644 -81.3239 349° North 449 517 36,000  Level Indianapolis Center
Sat 06:40:52 PM 38.3869 -81.3564 348° North 449 517 36,000  Level Indianapolis Center
Sat 06:41:54 PM 38.5067 -81.3867 349° North 442 509 36,000  Level Indianapolis Center
Sat 06:42:55 PM 38.6308 -81.4183 349° North 436 502 36,000 -246 Level Indianapolis Center
Sat 06:43:56 PM 38.7483 -81.4514 348° North 434 499 35,500 -787 Descending Indianapolis Center
Sat 06:44:57 PM 38.8778 -81.4842 349° North 437 503 34,400 -738 Descending Indianapolis Center
Sat 06:45:58 PM 38.9903 -81.5225 345° North 417 480 34,000 -639 Descending Indianapolis Center
Sat 06:46:59 PM 39.0978 -81.5725 340° North 412 474 33,100 -934 Descending Indianapolis Center
Sat 06:48:00 PM 39.2092 -81.6225 341° North 422 486 32,100 -590 Descending Indianapolis Center
Sat 06:49:01 PM 39.3203 -81.6758 340° North 425 489 31,900 -541 Descending Indianapolis Center
Sat 06:50:02 PM 39.4328 -81.7269 341° North 429 494 31,000 -927 Descending Indianapolis Center
Sat 06:51:04 PM 39.5483 -81.7800 341° North 438 504 30,000 -488 Descending Indianapolis Center
Sat 06:52:05 PM 39.6392 -81.8775 320° Northwest 425 489 30,000  Level Indianapolis Center
Sat 06:53:06 PM 39.7156 -82.0186 305° West 421 484 30,000  Level Indianapolis Center
Sat 06:54:07 PM 39.7869 -82.1442 307° West 432 497 30,000 -98 Level Indianapolis Center
Sat 06:55:08 PM 39.8600 -82.2694 307° West 433 498 29,800 -1,033 Descending Indianapolis Center
Sat 06:56:09 PM 39.9414 -82.3897 311° West 450 518 27,900 -1,770 Descending Indianapolis Center
Sat 06:57:10 PM 40.0289 -82.5042 315° West 449 517 26,200 -1,426 Descending Indianapolis Center
Sat 06:58:11 PM 40.1142 -82.6167 315° West 441 507 25,000 -1,082 Descending Indianapolis Center
Sat 06:59:12 PM 40.2022 -82.7242 317° Northwest 436 502 24,000 -738 Descending Indianapolis Center
Sat 07:00:13 PM 40.2878 -82.8269 318° Northwest 425 489 23,500 -934 Descending Indianapolis Center
Sat 07:01:14 PM 40.3703 -82.9333 316° Northwest 419 482 22,100 -738 Descending Indianapolis Center
Sat 07:02:15 PM 40.4719 -83.0569 317° Northwest 418 481 22,000 -50 Descending Indianapolis Center
Sat 07:03:15 PM 40.5503 -83.1608 315° West 405 466 22,000  Level Indianapolis Center
Sat 07:04:16 PM 40.6258 -83.2647 314° West 397 457 22,000 -295 Level Indianapolis Center
Sat 07:05:17 PM 40.6875 -83.3664 309° West 365 420 21,400 -492 Descending Indianapolis Center
Sat 07:06:18 PM 40.7150 -83.4900 286° West 355 409 21,000 -197 Descending Indianapolis Center
Sat 07:07:19 PM 40.7483 -83.6147 289° West 360 414 21,000  Level Indianapolis Center
Sat 07:08:20 PM 40.7875 -83.7381 293° West 364 419 21,000  Level Indianapolis Center
Sat 07:09:21 PM 40.8311 -83.8683 294° West 383 441 21,000 -49 Level Indianapolis Center
Sat 07:10:22 PM 40.8747 -84.0033 293° West 397 457 20,900 -492 Descending Indianapolis Center
Sat 07:11:23 PM 40.9192 -84.1411 293° West 408 470 20,000 -443 Descending Indianapolis Center
Sat 07:12:24 PM 40.9500 -84.2883 286° West 412 474 20,000  Level Indianapolis Center
Sat 07:13:24 PM 40.9833 -84.4303 287° West 408 470 20,000  Level Indianapolis Center
Sat 07:14:25 PM 41.0228 -84.6042 287° West 412 474 20,000  Level Indianapolis Center
Sat 07:15:26 PM 41.0553 -84.7522 286° West 418 481 20,000  Level Indianapolis Center
Sat 07:16:27 PM 41.0878 -84.8939 287° West 407 468 20,000  Level Indianapolis Center
Sat 07:17:28 PM 41.1192 -85.0397 286° West 406 467 20,000  Level Indianapolis Center
Sat 07:18:29 PM 41.1506 -85.1819 286° West 406 467 20,000  Level Indianapolis Center
Sat 07:19:29 PM 41.1811 -85.3239 286° West 404 465 20,000  Level Indianapolis Center
Sat 07:20:30 PM 41.2133 -85.4678 287° West 407 468 20,000  Level Indianapolis Center
Sat 07:21:31 PM 41.2439 -85.6094 286° West 404 465 20,000  Level Indianapolis Center
Sat 07:22:32 PM 41.2753 -85.7539 286° West 407 468 20,000  Level Indianapolis Center
Sat 07:23:33 PM 41.3050 -85.8975 285° West 406 467 20,000  Level Indianapolis Center
Sat 07:24:34 PM 41.3356 -86.0397 286° West 404 465 20,000  Level Indianapolis Center
Sat 07:25:34 PM 41.3647 -86.1817 285° West 402 463 20,000 -500 Level Indianapolis Center
Sat 07:26:58 PM 41.4097 -86.3975 286° West 401 461 18,800 -1,151 Descending Chicago Center
Sat 07:28:00 PM 41.4392 -86.5408 285° West 401 461 17,200 -1,463 Descending Chicago Center
Sat 07:29:01 PM 41.4669 -86.6739 286° West 378 435 15,800 -1,230 Descending Chicago Center
Sat 07:30:02 PM 41.4947 -86.8100 285° West 353 406 14,700 -1,033 Descending Chicago Center
Sat 07:31:03 PM 41.5203 -86.9358 285° West 354 407 13,700 -1,024 Descending Chicago Center
Sat 07:32:05 PM 41.5453 -87.0625 285° West 357 411 12,600 -829 Descending Chicago Center
Sat 07:33:06 PM 41.5708 -87.1906 285° West 359 413 12,000 -738 Descending Chicago Center
Sat 07:34:07 PM 41.6164 -87.3008 299° West 345 397 11,100 -976 Descending Chicago Center
Sat 07:35:09 PM 41.6772 -87.4017 309° West 351 404 10,000 -732 Descending Chicago Center
Sat 07:36:10 PM 41.7411 -87.5069 309° West 302 348 9,600 -1,033 Descending Chicago Center
Sat 07:37:11 PM 41.7875 -87.5842 309° West 273 314 7,900 -1,268 Descending Chicago Center
Sat 07:38:13 PM 41.8194 -87.6639 298° West 262 302 7,000 -439 Descending Chicago Center
Sat 07:39:14 PM 41.8147 -87.7486 266° West 233 268 7,000 -197 Level Chicago Center
Sat 07:40:15 PM 41.8108 -87.8436 267° West 252 290 6,600 -1,073 Descending Chicago Center
Sat 07:41:17 PM 41.8078 -87.9381 268° West 256 295 4,800 -1,756 Descending Chicago Center
Sat 07:42:18 PM 41.8486 -88.0131 306° West 258 297 3,000 -1,373 Descending Chicago Center
Sat 07:43:15 PM 41.9000 -87.9667 34° Northeast 196 226 2,100 -919 Descending Chicago TRACON
Sat 07:44:09 PM 41.9333 -87.9333 37° Northeast 141 162 1,300 -889 Descending Chicago TRACON

Login

Don't have an account? Register now (free) for customized features, flight alerts, and more!